Thunder radar more information blitzortung!


Radar de pluja more information rain snow radar


Visita la nostra xarxa de llocs de meteo:

Template documentation
and downloads

And another site



No particular awareness of the weather is required.    There are no Weather-warnings

Pagina Historial Weather Underground text

Diari Resum May 9, 2017 Unitats:  Imperial    Mètric   Tant
« Previous Dia
SegĂźent Dia »
Diari Setmana Mensual Anual Personalitzada
  Maxima: Minima: Media:
Temperatura: 76.8 °F 50.4 °F 64.2 °F
Punt de rosada: 54.1 °F 43.3 °F 50.7 °F
Humitat: 81 % 36 % 63 %
Wind Speed: 12.7 mph 0 mph 4.2 mph
RĂ fegues de vent: 12.7 mph - -
Vent:- - SE
Pression baro: 30 in 29.7 in -
Precipitacions: 0 in    
Historical Graphs
 
 
Dades de taula per May 9, 2017
Temps Temperatura Punt de rosada Pression baro Vent Wind Speed RĂ fegues de vent Humitat Rainfall Rate (Hourly)
00:00 58.3 °F 46.6 °F 30 in Calm     65 % 0 in
00:05 58.1 °F 46.4 °F 30 in Calm     65 % 0 in
00:10 51.6 °F 44.2 °F 29.9 in Calm   2 mph 76 % 0 in
00:20 51.6 °F 44.2 °F 29.9 in SW 1 mph 1 mph 76 % 0 in
00:30 51.4 °F 44.1 °F 29.9 in Calm     76 % 0 in
00:40 51.3 °F 44.1 °F 29.9 in Calm     76 % 0 in
00:50 51.1 °F 43.9 °F 29.9 in SW 1 mph 1 mph 76 % 0 in
01:00 51.1 °F 43.9 °F 29.9 in WSW 1 mph 2 mph 76 % 0 in
01:10 50.9 °F 43.9 °F 29.9 in Calm     77 % 0 in
01:20 50.9 °F 43.9 °F 29.9 in Calm     77 % 0 in
01:30 51.1 °F 44.1 °F 29.9 in Calm     77 % 0 in
01:40 50.9 °F 43.9 °F 29.9 in Calm     77 % 0 in
01:50 50.4 °F 43.3 °F 29.9 in Calm     77 % 0 in
02:00 50.4 °F 43.3 °F 29.9 in WSW 1 mph 2 mph 77 % 0 in
02:10 50.4 °F 43.9 °F 29.9 in SW 1 mph 2 mph 78 % 0 in
02:20 50.5 °F 43.9 °F 30 in SW 1 mph 2 mph 78 % 0 in
02:30 50.7 °F 44.1 °F 30 in SW 1 mph 1 mph 78 % 0 in
02:40 51.1 °F 44.4 °F 29.9 in SW 1 mph 2 mph 78 % 0 in
02:50 52 °F 45.3 °F 29.9 in SW 1 mph 2 mph 78 % 0 in
03:00 52.7 °F 45.7 °F 29.9 in SW 1 mph 3 mph 77 % 0 in
03:10 53.8 °F 46.8 °F 29.9 in Calm   2 mph 77 % 0 in
03:20 54.9 °F 47.8 °F 29.9 in Calm   2 mph 77 % 0 in
03:30 56.8 °F 49.5 °F 29.9 in Calm   1 mph 76 % 0 in
03:40 56.1 °F 48.4 °F 29.9 in SW 2 mph 2 mph 75 % 0 in
03:50 57.4 °F 49.5 °F 29.9 in Calm   2 mph 75 % 0 in
04:00 58.6 °F 50 °F 29.9 in SSW 1 mph 2 mph 73 % 0 in
04:10 58.3 °F 49.3 °F 29.9 in ESE 2 mph 4 mph 72 % 0 in
04:20 58.8 °F 49.5 °F 29.9 in ESE 2 mph 3 mph 71 % 0 in
04:30 59.7 °F 50.4 °F 29.9 in East 2 mph 2 mph 71 % 0 in
04:40 60.3 °F 50.4 °F 29.9 in East 2 mph 4 mph 70 % 0 in
04:50 61.3 °F 51.1 °F 29.9 in East 2 mph 5 mph 69 % 0 in
05:00 62.4 °F 51.6 °F 29.9 in ENE 3 mph 4 mph 68 % 0 in
05:10 62.2 °F 51.4 °F 29.9 in East 2 mph 6 mph 68 % 0 in
05:20 63.5 °F 52.3 °F 29.9 in ESE 2 mph 6 mph 67 % 0 in
05:30 63.7 °F 51.6 °F 29.9 in East 3 mph 4 mph 65 % 0 in
05:40 65.3 °F 53.2 °F 29.9 in ESE 3 mph 3 mph 65 % 0 in
05:50 65.3 °F 52.9 °F 29.9 in ESE 3 mph 5 mph 64 % 0 in
06:00 64.8 °F 52 °F 29.9 in ESE 3 mph 6 mph 63 % 0 in
11:02 65.8 °F 52.9 °F 29.9 in ENE 4 mph 4 mph 63 % 0 in
11:07 65.3 °F 52.3 °F 29.9 in NNE 5.8 mph 5.8 mph 63 % 0 in
11:12 65.7 °F 52.3 °F 29.9 in SE 5.8 mph 5.8 mph 62 % 0 in
11:17 66.4 °F 53.1 °F 29.9 in NE 3.5 mph 3.5 mph 62 % 0 in
11:22 66.4 °F 52.2 °F 29.9 in SE 6.9 mph 6.9 mph 60 % 0 in
11:27 66 °F 52.5 °F 29.9 in ENE 4.6 mph 4.6 mph 62 % 0 in
11:32 67.3 °F 53.4 °F 29.9 in East 4.6 mph 4.6 mph 61 % 0 in
11:37 67.3 °F 52.9 °F 29.9 in ESE 3.6 mph 3.6 mph 60 % 0 in
11:42 66.7 °F 52.3 °F 29.9 in ESE 2.6 mph 2.6 mph 60 % 0 in
11:47 67.6 °F 53.2 °F 29.9 in ENE 3.5 mph 3.5 mph 60 % 0 in
11:52 67.1 °F 52.3 °F 29.9 in East 5.8 mph 5.8 mph 59 % 0 in
11:57 68.5 °F 53.2 °F 29.9 in SSE 3.8 mph 3.8 mph 58 % 0 in
12:02 68.9 °F 53.4 °F 29.9 in ESE 3.5 mph 3.5 mph 58 % 0 in
12:07 67.8 °F 53.1 °F 29.9 in East 4.6 mph 4.6 mph 59 % 0 in
12:12 68.5 °F 53.2 °F 29.9 in SSE 5.8 mph 5.8 mph 58 % 0 in
12:17 68.9 °F 53.1 °F 29.9 in ESE 4.9 mph 4.9 mph 57 % 0 in
12:22 68.5 °F 52.7 °F 29.9 in NNE 6.9 mph 6.9 mph 57 % 0 in
12:27 69.4 °F 53.4 °F 29.9 in ENE 3.8 mph 3.8 mph 57 % 0 in
12:32 70.5 °F 54.1 °F 29.9 in SSE 3.5 mph 3.5 mph 56 % 0 in
12:37 70.2 °F 52.7 °F 29.9 in ESE 5.8 mph 5.8 mph 54 % 0 in
12:42 69.6 °F 52.7 °F 29.9 in South 8.1 mph 8.1 mph 55 % 0 in
12:47 69.1 °F 52.7 °F 29.9 in ESE 6.9 mph 6.9 mph 56 % 0 in
12:52 68.9 °F 52.2 °F 29.9 in East 6.9 mph 6.9 mph 55 % 0 in
12:57 68.7 °F 52 °F 29.9 in East 9.2 mph 9.2 mph 55 % 0 in
13:02 68.5 °F 51.6 °F 29.9 in East 8.1 mph 8.1 mph 55 % 0 in
13:07 68.7 °F 52 °F 29.9 in ESE 10.4 mph 10.4 mph 55 % 0 in
13:12 69.3 °F 52.3 °F 29.9 in SSE 9.2 mph 9.2 mph 55 % 0 in
13:17 68.7 °F 52 °F 29.9 in East 11.5 mph 11.5 mph 55 % 0 in
13:22 68.5 °F 51.6 °F 29.9 in East 10.4 mph 10.4 mph 55 % 0 in
13:27 68.4 °F 51.6 °F 29.9 in ENE 11.5 mph 11.5 mph 55 % 0 in
13:32 68.9 °F 52.2 °F 29.9 in ESE 6.9 mph 6.9 mph 55 % 0 in
13:37 69.3 °F 52.9 °F 29.9 in SSE 8.1 mph 8.1 mph 56 % 0 in
13:42 69.8 °F 52.9 °F 29.9 in SSE 6.9 mph 6.9 mph 55 % 0 in
13:47 69.6 °F 52.7 °F 29.9 in ESE 8.1 mph 8.1 mph 55 % 0 in
13:52 69.4 °F 52.5 °F 29.9 in SE 8.1 mph 8.1 mph 55 % 0 in
13:53 69.4 °F 52.5 °F 29.9 in ESE 9.2 mph 9.2 mph 55 % 0 in
13:58 68.5 °F 51.6 °F 29.9 in SSW 8.1 mph 8.1 mph 55 % 0 in
14:03 68.7 °F 52 °F 29.9 in SE 9.2 mph 9.2 mph 55 % 0 in
14:08 68.7 °F 51.4 °F 29.9 in SE 9.2 mph 9.2 mph 54 % 0 in
14:13 68.7 °F 52 °F 29.8 in SE 9.2 mph 9.2 mph 55 % 0 in
14:18 68.9 °F 52.2 °F 29.8 in SE 4.6 mph 4.6 mph 55 % 0 in
14:23 68.9 °F 51.6 °F 29.8 in East 10.4 mph 10.4 mph 54 % 0 in
14:28 69.3 °F 52.3 °F 29.8 in ESE 4.6 mph 4.6 mph 55 % 0 in
14:33 69.4 °F 52.5 °F 29.8 in ENE 5.8 mph 5.8 mph 55 % 0 in
14:38 69.1 °F 51.6 °F 29.8 in NNE 9.2 mph 9.2 mph 54 % 0 in
14:43 69.6 °F 52.7 °F 29.8 in NNE 4.9 mph 4.9 mph 55 % 0 in
14:48 69.3 °F 52 °F 29.8 in SE 9.2 mph 9.2 mph 54 % 0 in
14:53 69.8 °F 52 °F 29.8 in ESE 8.1 mph 8.1 mph 53 % 0 in
14:58 69.4 °F 52.2 °F 29.8 in ENE 10.4 mph 10.4 mph 54 % 0 in
15:03 69.4 °F 52.2 °F 29.8 in SSE 12.1 mph 12.1 mph 54 % 0 in
15:08 69.8 °F 52 °F 29.8 in ESE 9.2 mph 9.2 mph 53 % 0 in
15:13 69.8 °F 52 °F 29.8 in ENE 6.9 mph 6.9 mph 53 % 0 in
15:18 70.3 °F 52.3 °F 29.8 in SSE 4.6 mph 4.6 mph 53 % 0 in
15:23 70.2 °F 51.6 °F 29.8 in ENE 12.7 mph 12.7 mph 52 % 0 in
15:28 70.7 °F 52.2 °F 29.8 in ESE 5.8 mph 5.8 mph 52 % 0 in
15:33 70.3 °F 52.3 °F 29.8 in ENE 7.1 mph 7.1 mph 53 % 0 in
15:38 70.5 °F 52 °F 29.8 in NNE 4.6 mph 4.6 mph 52 % 0 in
15:43 71.4 °F 53.4 °F 29.8 in SSW 6.9 mph 6.9 mph 53 % 0 in
15:48 72.9 °F 52.5 °F 29.8 in SSW 4.6 mph 4.6 mph 49 % 0 in
15:50 73.6 °F 52.7 °F 29.8 in SW 2.3 mph 2.3 mph 48 % 0 in
15:55 74.8 °F 53.2 °F 29.8 in South 3.5 mph 3.5 mph 47 % 0 in
16:00 75.2 °F 53.1 °F 29.8 in West 4.6 mph 4.6 mph 46 % 0 in
16:05 75.2 °F 51.3 °F 29.8 in SW 6.9 mph 6.9 mph 43 % 0 in
16:10 75.7 °F 52.3 °F 29.8 in SW 5.8 mph 5.8 mph 44 % 0 in
16:15 76.1 °F 50.7 °F 29.8 in SSW 4.6 mph 4.6 mph 41 % 0 in
16:20 75.6 °F 49.5 °F 29.8 in South 5.8 mph 5.8 mph 40 % 0 in
16:25 75.9 °F 50.5 °F 29.8 in SW 6 mph 6 mph 41 % 0 in
16:30 75.7 °F 49.6 °F 29.8 in WSW 6.9 mph 6.9 mph 40 % 0 in
16:35 75.9 °F 49.3 °F 29.8 in WSW 4.6 mph 4.6 mph 39 % 0 in
16:40 76.8 °F 50 °F 29.8 in South 4.6 mph 4.6 mph 39 % 0 in
16:45 75.9 °F 48.6 °F 29.8 in SW 3.5 mph 3.5 mph 38 % 0 in
16:50 75.9 °F 48.6 °F 29.8 in SW 5.8 mph 5.8 mph 38 % 0 in
16:55 75.7 °F 48.4 °F 29.8 in West 5.8 mph 5.8 mph 38 % 0 in
17:00 75.2 °F 47.8 °F 29.8 in South 3.8 mph 3.8 mph 38 % 0 in
17:05 75.2 °F 47.1 °F 29.8 in SW 5.8 mph 5.8 mph 37 % 0 in
17:10 75 °F 46.2 °F 29.8 in West 3.5 mph 3.5 mph 36 % 0 in
17:15 74.8 °F 46.8 °F 29.8 in SW 4.6 mph 4.6 mph 37 % 0 in
17:20 73.6 °F 47.1 °F 29.8 in SSW 5.8 mph 5.8 mph 39 % 0 in
17:25 72 °F 48.9 °F 29.8 in ENE 6 mph 6 mph 44 % 0 in
17:30 70.9 °F 49.6 °F 29.8 in East 6.9 mph 6.9 mph 47 % 0 in
17:35 69.8 °F 49.3 °F 29.8 in NE 8.1 mph 8.1 mph 48 % 0 in
17:40 70 °F 49.8 °F 29.8 in SE 6.4 mph 6.4 mph 49 % 0 in
17:45 69.6 °F 50.7 °F 29.8 in ESE 6.9 mph 6.9 mph 51 % 0 in
17:50 69.4 °F 50.5 °F 29.8 in ESE 9.2 mph 9.2 mph 51 % 0 in
17:51 69.4 °F 50.5 °F 29.8 in ESE 10.4 mph 10.4 mph 51 % 0 in
17:56 69.3 °F 50.9 °F 29.8 in SE 8.5 mph 8.5 mph 52 % 0 in
18:01 69.3 °F 50.9 °F 29.8 in ESE 10.4 mph 10.4 mph 52 % 0 in
18:06 68.9 °F 51.1 °F 29.8 in SSW 8.1 mph 8.1 mph 53 % 0 in
18:11 70 °F 51.1 °F 29.8 in ESE 3.5 mph 3.5 mph 51 % 0 in
18:16 71.1 °F 51.4 °F 29.8 in South 2.3 mph 2.3 mph 50 % 0 in
18:21 71.6 °F 51.4 °F 29.8 in South 4.6 mph 4.6 mph 49 % 0 in
18:26 72.1 °F 50.7 °F 29.7 in SSE 4.6 mph 4.6 mph 47 % 0 in
18:31 72.3 °F 49.3 °F 29.7 in SSW 3.5 mph 3.5 mph 44 % 0 in
18:36 71.6 °F 49.6 °F 29.7 in South 5.8 mph 5.8 mph 46 % 0 in
18:41 70.3 °F 49.6 °F 29.8 in SE 5.8 mph 5.8 mph 48 % 0 in
18:46 68 °F 49.3 °F 29.8 in ENE 9.2 mph 9.2 mph 51 % 0 in
18:51 67.5 °F 49.6 °F 29.8 in ENE 5.8 mph 5.8 mph 53 % 0 in
18:56 66.7 °F 49.6 °F 29.8 in ESE 10.4 mph 10.4 mph 54 % 0 in
19:01 66.4 °F 50.2 °F 29.8 in ESE 5.8 mph 6.2 mph 56 % 0 in
19:06 65.5 °F 50.7 °F 29.8 in ESE 6.9 mph 6.9 mph 59 % 0 in
19:11 65.3 °F 50.2 °F 29.8 in ESE 5.9 mph 5.9 mph 58 % 0 in
19:16 65.1 °F 50.4 °F 29.8 in ESE 10.2 mph 10.2 mph 59 % 0 in
19:20 59.7 °F 52.2 °F 29.8 in NE 2 mph 3 mph 76 % 0 in
19:21 64.9 °F 50.7 °F 29.8 in SSW 5.8 mph 5.8 mph 60 % 0 in
19:27 64.9 °F 50.7 °F 29.8 in ESE 8.1 mph 8.1 mph 60 % 0 in
19:30 59.7 °F 52.5 °F 29.8 in NE 1 mph 3 mph 77 % 0 in
19:32 64.8 °F 50.5 °F 29.8 in ESE 6.9 mph 6.9 mph 60 % 0 in
19:37 64.9 °F 50.7 °F 29.8 in SSE 3.5 mph 3.5 mph 60 % 0 in
19:40 59.7 °F 52.5 °F 29.8 in Calm   1 mph 77 % 0 in
19:42 64.8 °F 50.2 °F 29.8 in ESE 5.8 mph 5.8 mph 59 % 0 in
19:47 64.8 °F 50.2 °F 29.8 in South 3.1 mph 3.1 mph 59 % 0 in
19:50 59.7 °F 52.9 °F 29.8 in Calm   2 mph 78 % 0 in
19:52 64.6 °F 49.8 °F 29.8 in South 4.6 mph 4.6 mph 59 % 0 in
19:53 64.6 °F 49.8 °F 29.8 in SSE 4.6 mph 4.6 mph 59 % 0 in
19:58 64.6 °F 49.5 °F 29.8 in SE 3.5 mph 3.5 mph 58 % 0 in
20:00 59.5 °F 52.7 °F 29.8 in Calm   2 mph 78 % 0 in
20:03 64.6 °F 49.5 °F 29.8 in ESE 3.5 mph 3.5 mph 58 % 0 in
20:08 64 °F 49.5 °F 29.8 in ESE 4.6 mph 4.6 mph 59 % 0 in
20:10 59.4 °F 52.5 °F 29.8 in West 1 mph 2 mph 78 % 0 in
20:13 63.5 °F 49.5 °F 29.8 in East 4.6 mph 4.6 mph 60 % 0 in
20:18 63.1 °F 49.5 °F 29.8 in ESE 5.8 mph 5.8 mph 61 % 0 in
20:20 59.4 °F 52.5 °F 29.8 in Calm   1 mph 78 % 0 in
20:23 63 °F 50.2 °F 29.8 in ESE 5.4 mph 5.4 mph 63 % 0 in
20:28 62.6 °F 50.2 °F 29.8 in East 4.6 mph 4.6 mph 64 % 0 in
20:30 59.4 °F 52.5 °F 29.8 in Calm     78 % 0 in
20:33 62.4 °F 50.9 °F 29.8 in ESE 5.8 mph 5.8 mph 66 % 0 in
20:38 62.4 °F 50.5 °F 29.8 in SE 2.3 mph 2.3 mph 65 % 0 in
20:40 59.2 °F 52.3 °F 29.8 in Calm     78 % 0 in
20:43 62.2 °F 50.7 °F 29.8 in South 1.2 mph 1.2 mph 66 % 0 in
20:48 62.2 °F 50.4 °F 29.8 in WSW 2.3 mph 2.3 mph 65 % 0 in
20:50 59.2 °F 52.3 °F 29.8 in NNE 2 mph 2 mph 78 % 0 in
20:53 62.2 °F 50.4 °F 29.8 in Calm     65 % 0 in
20:58 62.2 °F 50.4 °F 29.8 in WSW 1.2 mph   65 % 0 in
21:00 59.2 °F 52.7 °F 29.8 in Calm   1 mph 79 % 0 in
21:03 62.2 °F 50.7 °F 29.8 in NE 1.4 mph   66 % 0 in
21:08 61.9 °F 50.4 °F 29.8 in NNE 2.3 mph 2.3 mph 66 % 0 in
21:10 59 °F 52.5 °F 29.8 in Calm   2 mph 79 % 0 in
21:13 61.7 °F 50.5 °F 29.8 in NE 1.4 mph 1.4 mph 67 % 0 in
21:18 61.7 °F 50.5 °F 29.8 in NNE 3.5 mph 3.5 mph 67 % 0 in
21:20 58.8 °F 52 °F 29.8 in ENE 1 mph 2 mph 78 % 0 in
21:23 61.7 °F 50.5 °F 29.8 in NNE 3.5 mph 3.5 mph 67 % 0 in
21:25 61.5 °F 50.5 °F 29.8 in NNE 3.5 mph 3.5 mph 67 % 0 in
21:30 61.7 °F 50.5 °F 29.8 in NE 2.3 mph 2.3 mph 67 % 0 in
21:35 61.5 °F 50.9 °F 29.8 in NE 3.5 mph 3.5 mph 68 % 0 in
21:40 61.3 °F 51.1 °F 29.8 in NNE 4.6 mph 4.6 mph 69 % 0 in
21:46 61.2 °F 50.9 °F 29.8 in NNE 4.3 mph 4.3 mph 69 % 0 in
21:50 58.3 °F 51.8 °F 29.7 in Calm     79 % 0 in
21:51 61.2 °F 50.9 °F 29.8 in ENE 4.6 mph 4.6 mph 69 % 0 in
21:56 61 °F 51.4 °F 29.7 in ESE 4.6 mph 4.6 mph 71 % 0 in
22:00 58.3 °F 51.8 °F 29.7 in Calm     79 % 0 in
22:01 61 °F 51.4 °F 29.7 in ENE 5.8 mph 5.8 mph 71 % 0 in
22:06 60.8 °F 51.3 °F 29.7 in ESE 5.8 mph 5.8 mph 71 % 0 in
22:10 58.3 °F 51.8 °F 29.7 in East 1 mph 1 mph 79 % 0 in
22:12 60.6 °F 51.4 °F 29.8 in ENE 5.8 mph 5.8 mph 72 % 0 in
22:17 60.6 °F 52 °F 29.8 in ESE 4.6 mph 4.6 mph 73 % 0 in
22:20 58.1 °F 51.6 °F 29.7 in Calm   1 mph 79 % 0 in
22:22 60.4 °F 51.6 °F 29.8 in East 4.6 mph 4.7 mph 73 % 0 in
22:27 60.4 °F 52.2 °F 29.8 in ESE 6.9 mph 6.9 mph 74 % 0 in
22:30 58.1 °F 51.6 °F 29.7 in Calm   2 mph 79 % 0 in
22:32 60.3 °F 52 °F 29.8 in East 5.8 mph 5.8 mph 74 % 0 in
22:37 60.3 °F 52.7 °F 29.8 in ENE 5.8 mph 5.8 mph 76 % 0 in
22:40 57.9 °F 51.4 °F 29.7 in West 1 mph 2 mph 79 % 0 in
22:42 60.3 °F 52.7 °F 29.8 in East 4.6 mph 4.6 mph 76 % 0 in
22:47 60.1 °F 52.5 °F 29.8 in East 3.5 mph 3.5 mph 76 % 0 in
22:50 57.2 °F 51.1 °F 29.7 in SW 1 mph 3 mph 80 % 0 in
22:52 60.1 °F 52.5 °F 29.8 in ENE 2.9 mph 2.9 mph 76 % 0 in
22:57 60.1 °F 52.5 °F 29.8 in ENE 3.5 mph 3.5 mph 76 % 0 in
23:00 57.2 °F 51.1 °F 29.7 in SW 1 mph 2 mph 80 % 0 in
23:03 60.1 °F 52.5 °F 29.8 in Calm     76 % 0 in
23:08 60.1 °F 52.5 °F 29.8 in Calm     76 % 0 in
23:10 57.2 °F 51.1 °F 29.7 in Calm   1 mph 80 % 0 in
23:13 60.1 °F 52.5 °F 29.8 in Calm     76 % 0 in
23:18 60.1 °F 52.5 °F 29.8 in SE 1.2 mph 1.2 mph 76 % 0 in
23:20 57.2 °F 51.1 °F 29.7 in Calm   1 mph 80 % 0 in
23:23 59.9 °F 52.3 °F 29.8 in East 4.6 mph 4.6 mph 76 % 0 in
23:28 60.1 °F 52.5 °F 29.8 in East 2.9 mph 2.9 mph 76 % 0 in
23:30 56.7 °F 50.5 °F 29.7 in West 1 mph 2 mph 80 % 0 in
23:33 59.9 °F 52.3 °F 29.8 in ENE 2.3 mph 2.3 mph 76 % 0 in
23:38 59.9 °F 52.7 °F 29.8 in NE 2.3 mph 2.3 mph 77 % 0 in
23:40 56.7 °F 50.9 °F 29.7 in West 1 mph 2 mph 81 % 0 in
23:43 59.9 °F 52.3 °F 29.8 in NNE 2.3 mph 2.3 mph 76 % 0 in
23:48 59.9 °F 52.3 °F 29.8 in NE 1.2 mph 1.4 mph 76 % 0 in
23:50 56.5 °F 50.7 °F 29.7 in North 1 mph 2 mph 81 % 0 in
23:53 59.9 °F 52.3 °F 29.8 in NNE 2.3 mph 2.3 mph 76 % 0 in
23:59 59.9 °F 52.3 °F 29.8 in NNE 2.3 mph 2.3 mph 76 % 0 in
Meteo Sesrovires
Elogis d' Weather Underground - 3.75 mb

Guio original per  Jim McMurry - jmcmurry@mwt.net Adaptat per a la plantilla per  Wim van der Kuil - Leuven-Template.eu

Trobareu la nostra informacio del temps tambe a:

Weather Underground

AWEKAS